Portada
METAR-TAF:

METAR-TAF

Aeroports :

Busan, Corea del Sud

latitud: 35-11N, longitud: 128-56E, altitud: 4 m

Observació

L'informe es va fer fa 22 minuts, a les 08:00 UTC
Vent 5 kt del Nord-Oest
Temperatura 9°C
Humitat 27%
Pressió 1022 hPa
Visibilitat 10 km o més
sense núvols per sota de 1500 mi sense presència de cumulonimbus.

METAR: RKPK 060800Z 32005KT CAVOK 09/M09 Q1022

Hora: 17:22 (08:22 UTC)

Pronòstic

L'informe es va fer fa 3 hores i 22 minuts, a les 05:00 UTC
Pronòstic vàlid del 06 a les 06 UTC al 07 a les 12 UTC
Vent 8 kt del Oest
Visibilitat 10 km o més
Núvols disperses a una alçada de 3000 ft
Evolucionant progressivament
l' 06 a les 06 UTC al 06 a les 07 UTC
Vent 8 kt del Oest/Nord-Oest amb ràfegues de 18 kt
Evolucionant progressivament
l' 06 a les 10 UTC al 06 a les 11 UTC
Vent 6 kt del Oest/Nord-Oest

TAF: RKPK 060500Z 0606/0712 27008KT 9999 SCT030 TN02/0621Z TX13/0706Z BECMG 0606/0607 30008G18KT BECMG 0610/0611 30006KT

Observacions i pronòstics meteorològics de més de 4000 aeroports (METAR i TAF).

Les estacions disponibles són els punts grocs i vermells al mapa.

Posi el ratolí al punt desitjat per veure el nom de l'estació.

Feu clic per veure les observacions i els pronòstics meteorològics.

Per canviar el mapa: feu clic els botons verds amb una creu de color negre per apropar; al botó verd amb un guió per allunyar la imatge; o en les fletxes verdes per a mapes adjacents.


METAR-TAF: